Churchill, VA

01:23 AM EST die 20o February, anno 2017 (GMT -0500)
Lord Willing Dr. | | Change Station

Elev 499 ft 38.54 °N, 77.94 °W | Updated 9 seconds ago

Serena
Serena
55.0 °F
Feels Like 55.0 °F
N
0.9
Ventus Variabilis Ventus from Inter Aquilonem et Zephyrus
Gusts 2.0 mph

Hodie
High -- | Low -- °F
--% Chance of Precip.
Yesterday
High -- | Low -- °F
Precip. -- in
Pressio 30.10 in
Visibilitas 10.0 milia passuum
Clouds Serena
Frigus in quo Ros apparet 39 °F
Umor 54%
Rainfall 0.00 in
Snow Depth Not available.
6:55 AM 5:55 PM
Last Quarter, 37% visible
METAR KCJR 200615Z AUTO 00000KT 10SM CLR 04/01 A3010 RMK AO2 T00350012
Pressio 30.10 in
Visibilitas 10.0 milia passuum
Clouds Serena
Frigus in quo Ros apparet 39 °F
Umor 54%
Rainfall 0.00 in
Snow Depth Not available.
6:55 AM 5:55 PM
Last Quarter, 37% visible
METAR KCJR 200615Z AUTO 00000KT 10SM CLR 04/01 A3010 RMK AO2 T00350012

Get Your Daily Forecast Email!

Thanks for signing up!

Be on the lookout for a verification email in your inbox.

You'll start receiving the daily forecast at 8 AM.

×

10-Day Weather Forecast

Almanac

Astronomy

Feb. 20, 2017 Rise Set
Actual Time
Civil Twilight
Nautical Twilight
Astronomical Twilight
Moon
Length Of Visible Light
Length of Day
Tomorrow will be .
, % of the Moon is Illuminated

Today's Extremes

State Highs State Lows

Community

WunderPhotos

Upload Photos

1,962,540 photos uploaded!

WunderBlog® & News

Nearby

Air Quality

  Air Quality AQ Index Pollutant
Not available.

Snow Depth

Station Depth Elevation

Earthquake Activity

City Distance Mag. Time & Date
Minimum magnitude displayed is 2.5.

Coastal Water Temperatures

Locus Calor

Stations

Nearby Weather Stations

Station Location Temp Frigus Venti Frigus in quo Ros apparet Umor Ventus Precip. Elev Renovata Type
                   

Watches & Warnings

There are currently no watches in effect.